createdAt,value
2022-12-16T00:02:22.902Z,-1.90
2022-12-16T00:04:49.837Z,-1.80
2022-12-16T00:07:17.394Z,-1.80
2022-12-16T00:09:44.366Z,-1.80
2022-12-16T00:12:11.254Z,-1.70
2022-12-16T00:14:38.195Z,-1.70
2022-12-16T00:17:05.136Z,-1.70
2022-12-16T00:19:32.007Z,-1.70
2022-12-16T00:21:59.002Z,-1.70
2022-12-16T00:24:25.992Z,-1.60
2022-12-16T00:26:52.847Z,-1.60
2022-12-16T00:29:20.371Z,-1.60
2022-12-16T00:31:48.374Z,-1.60
2022-12-16T00:34:16.113Z,-1.60
2022-12-16T00:36:44.074Z,-1.50
2022-12-16T00:39:11.281Z,-1.50
2022-12-16T00:41:38.472Z,-1.50
2022-12-16T00:44:05.557Z,-1.40
2022-12-16T00:46:32.450Z,-1.50
2022-12-16T00:48:59.351Z,-1.40
2022-12-16T00:51:26.238Z,-1.40
2022-12-16T00:53:53.090Z,-1.40
2022-12-16T00:56:21.081Z,-1.30
2022-12-16T00:58:48.044Z,-1.30
2022-12-16T01:01:15.107Z,-1.30
2022-12-16T01:03:42.368Z,-1.20
2022-12-16T01:06:10.768Z,-1.20
2022-12-16T01:08:37.692Z,-1.20
2022-12-16T01:11:04.725Z,-1.10
2022-12-16T01:13:32.005Z,-1.00
2022-12-16T01:16:02.056Z,-1.00
2022-12-16T01:18:28.983Z,-1.00
2022-12-16T01:21:02.134Z,-0.90
2022-12-16T01:23:29.141Z,-0.90
2022-12-16T01:25:58.303Z,-0.90
2022-12-16T01:28:25.471Z,-0.90
2022-12-16T01:30:57.349Z,-0.90
2022-12-16T01:33:24.434Z,-0.80
2022-12-16T01:35:58.200Z,-0.70
2022-12-16T01:38:25.108Z,-0.70
2022-12-16T01:40:52.169Z,-0.70
2022-12-16T01:43:20.561Z,-0.70
2022-12-16T01:45:47.756Z,-0.70
2022-12-16T01:48:31.959Z,-0.70
2022-12-16T01:51:02.504Z,-0.70
2022-12-16T01:53:30.676Z,-0.60
2022-12-16T01:55:59.279Z,-0.50
2022-12-16T01:58:30.238Z,-0.50
2022-12-16T02:00:57.680Z,-0.50
2022-12-16T02:03:25.788Z,-0.50
2022-12-16T02:05:52.840Z,-0.40
2022-12-16T02:08:20.119Z,-0.40
2022-12-16T02:10:52.166Z,-0.40
2022-12-16T02:13:25.126Z,-0.40
2022-12-16T02:16:16.701Z,-0.30
2022-12-16T02:18:50.185Z,-0.30
2022-12-16T02:21:43.103Z,-0.30
2022-12-16T02:24:09.994Z,-0.30
2022-12-16T02:26:55.229Z,-0.20
2022-12-16T02:29:33.527Z,-0.20
2022-12-16T02:32:03.333Z,-0.20
2022-12-16T02:34:49.121Z,-0.10
2022-12-16T02:37:24.908Z,-0.10
2022-12-16T02:40:02.697Z,-0.10
2022-12-16T02:42:40.260Z,-0.10
2022-12-16T02:45:11.310Z,0.00
2022-12-16T02:47:39.528Z,0.00
2022-12-16T02:50:14.210Z,0.00
2022-12-16T02:52:44.223Z,0.00
2022-12-16T02:55:11.484Z,0.00
2022-12-16T02:57:47.526Z,0.00
2022-12-16T03:00:15.903Z,0.00
2022-12-16T03:02:42.735Z,0.10
2022-12-16T03:05:14.432Z,0.10
2022-12-16T03:07:42.828Z,0.10
2022-12-16T03:10:14.329Z,0.20
2022-12-16T03:12:42.443Z,0.20
2022-12-16T03:15:10.302Z,0.20
2022-12-16T03:17:37.724Z,0.20
2022-12-16T03:20:10.707Z,0.20
2022-12-16T03:22:38.884Z,0.20
2022-12-16T03:25:06.656Z,0.20
2022-12-16T03:27:51.920Z,0.30
2022-12-16T03:30:25.887Z,0.30
2022-12-16T03:33:08.153Z,0.30
2022-12-16T03:35:38.330Z,0.30
2022-12-16T03:38:07.340Z,0.40
2022-12-16T03:40:34.799Z,0.30
2022-12-16T03:43:02.459Z,0.40
2022-12-16T03:45:32.693Z,0.40
2022-12-16T03:48:00.336Z,0.40
2022-12-16T03:50:29.739Z,0.40
2022-12-16T03:52:56.682Z,0.40
2022-12-16T03:55:23.647Z,0.50
2022-12-16T03:57:50.573Z,0.50
2022-12-16T04:00:17.801Z,0.50
2022-12-16T04:02:45.004Z,0.50
2022-12-16T04:05:12.045Z,0.60
2022-12-16T04:07:38.873Z,0.60
2022-12-16T04:10:06.325Z,0.70
2022-12-16T04:12:51.588Z,0.70
2022-12-16T04:15:36.803Z,0.70
2022-12-16T04:18:22.751Z,0.80
2022-12-16T04:21:10.575Z,0.80
2022-12-16T04:23:58.107Z,0.80
2022-12-16T04:26:24.959Z,0.90
2022-12-16T04:28:51.792Z,0.90
2022-12-16T04:31:18.816Z,0.90
2022-12-16T04:34:04.533Z,0.90
2022-12-16T04:36:49.830Z,0.90
2022-12-16T04:39:35.379Z,0.90
2022-12-16T04:42:20.825Z,1.00
2022-12-16T04:45:06.056Z,1.00
2022-12-16T04:47:56.955Z,1.00
2022-12-16T04:50:43.131Z,1.00
2022-12-16T04:53:28.319Z,1.10
2022-12-16T04:56:13.888Z,1.10
2022-12-16T04:58:59.490Z,1.10
2022-12-16T05:01:44.796Z,1.10
2022-12-16T05:04:30.165Z,1.20
2022-12-16T05:07:15.491Z,1.20
2022-12-16T05:10:01.238Z,1.20
2022-12-16T05:12:46.718Z,1.20
2022-12-16T05:15:32.296Z,1.20
2022-12-16T05:18:17.952Z,1.20
2022-12-16T05:21:03.287Z,1.20
2022-12-16T05:23:48.506Z,1.30
2022-12-16T05:26:33.779Z,1.30
2022-12-16T05:29:19.319Z,1.30
2022-12-16T05:32:04.766Z,1.30
2022-12-16T05:34:49.996Z,1.30
2022-12-16T05:37:46.200Z,1.30
2022-12-16T05:40:32.085Z,1.30
2022-12-16T05:43:17.771Z,1.30
2022-12-16T05:46:03.440Z,1.30
2022-12-16T05:48:49.038Z,1.40
2022-12-16T05:51:34.520Z,1.40
2022-12-16T05:54:20.093Z,1.40
2022-12-16T05:57:05.572Z,1.40
2022-12-16T05:59:51.004Z,1.50
2022-12-16T06:02:36.807Z,1.50
2022-12-16T06:05:22.686Z,1.50
2022-12-16T06:08:11.087Z,1.50
2022-12-16T06:10:57.073Z,1.50
2022-12-16T06:13:42.750Z,1.50
2022-12-16T06:16:28.226Z,1.50
2022-12-16T06:19:13.497Z,1.50
2022-12-16T06:21:58.856Z,1.50
2022-12-16T06:24:44.210Z,1.50
2022-12-16T06:27:29.604Z,1.50
2022-12-16T06:30:14.842Z,1.60
2022-12-16T06:33:01.300Z,1.60
2022-12-16T06:35:46.780Z,1.60
2022-12-16T06:38:32.303Z,1.60
2022-12-16T06:41:17.863Z,1.60
2022-12-16T06:44:03.109Z,1.70
2022-12-16T06:46:48.399Z,1.70
2022-12-16T06:49:33.661Z,1.80
2022-12-16T06:52:19.009Z,1.80
2022-12-16T06:55:04.334Z,1.80
2022-12-16T06:57:49.790Z,1.80
2022-12-16T07:00:35.270Z,1.80
2022-12-16T07:03:20.699Z,1.80
2022-12-16T07:06:06.169Z,1.80
2022-12-16T07:08:51.238Z,1.80
2022-12-16T07:11:36.471Z,1.90
2022-12-16T07:14:21.998Z,1.80
2022-12-16T07:17:11.127Z,1.90
2022-12-16T07:19:59.159Z,1.90
2022-12-16T07:22:44.527Z,1.90
2022-12-16T07:25:32.920Z,1.90
2022-12-16T07:28:18.156Z,1.90
2022-12-16T07:31:03.420Z,1.90
2022-12-16T07:33:48.663Z,1.90
2022-12-16T07:36:34.046Z,2.00
2022-12-16T07:39:19.648Z,2.00
2022-12-16T07:42:05.279Z,2.00
2022-12-16T07:44:50.935Z,2.10
2022-12-16T07:47:46.830Z,2.10
2022-12-16T07:50:36.005Z,2.00
2022-12-16T07:53:22.304Z,2.00
2022-12-16T07:56:07.648Z,2.10
2022-12-16T07:58:54.077Z,2.10
2022-12-16T08:01:49.969Z,2.10
2022-12-16T08:04:36.364Z,2.10
2022-12-16T08:07:21.729Z,2.10
2022-12-16T08:10:07.345Z,2.10
2022-12-16T08:12:52.954Z,2.10
2022-12-16T08:15:38.217Z,2.10
2022-12-16T08:18:23.692Z,2.10
2022-12-16T08:21:09.294Z,2.10
2022-12-16T08:23:55.060Z,2.10
2022-12-16T08:26:40.560Z,2.10
2022-12-16T08:29:43.813Z,2.10
2022-12-16T08:32:30.429Z,2.10
2022-12-16T08:35:15.625Z,2.10
2022-12-16T08:38:01.201Z,2.10
2022-12-16T08:40:46.576Z,2.10
2022-12-16T08:43:32.268Z,2.10
2022-12-16T08:46:18.322Z,2.10
2022-12-16T08:49:03.833Z,2.20
2022-12-16T08:51:50.842Z,2.20
2022-12-16T08:54:36.697Z,2.20
2022-12-16T08:57:22.568Z,2.20
2022-12-16T09:00:08.010Z,2.30
2022-12-16T09:02:55.423Z,2.40
2022-12-16T09:05:40.902Z,2.40
2022-12-16T09:08:26.459Z,2.50
2022-12-16T09:11:11.751Z,2.40
2022-12-16T09:13:57.226Z,2.40
2022-12-16T09:16:42.672Z,2.30
2022-12-16T09:19:28.753Z,2.20
2022-12-16T09:22:14.335Z,2.10
2022-12-16T09:25:01.027Z,2.20
2022-12-16T09:27:46.628Z,2.20
2022-12-16T09:30:31.900Z,2.30
2022-12-16T09:33:17.205Z,2.30
2022-12-16T09:36:02.467Z,2.30
2022-12-16T09:38:47.975Z,2.30
2022-12-16T09:41:41.252Z,2.30
2022-12-16T09:44:44.276Z,2.40
2022-12-16T09:47:42.050Z,2.40
2022-12-16T09:50:37.352Z,2.50
2022-12-16T09:53:28.429Z,2.60
2022-12-16T09:56:14.587Z,2.70
2022-12-16T09:59:03.748Z,2.80
2022-12-16T10:01:55.713Z,2.90
2022-12-16T10:04:49.905Z,2.80
2022-12-16T10:07:36.802Z,2.80
2022-12-16T10:10:27.647Z,2.80
2022-12-16T10:13:25.418Z,2.80
2022-12-16T10:16:27.236Z,2.80
2022-12-16T10:19:34.285Z,2.80
2022-12-16T10:22:25.406Z,3.00
2022-12-16T10:25:25.220Z,3.00
2022-12-16T10:28:12.818Z,3.10
2022-12-16T10:30:58.090Z,3.10
2022-12-16T10:33:46.670Z,3.10
2022-12-16T10:36:45.229Z,3.10
2022-12-16T10:39:46.511Z,3.00
2022-12-16T10:42:37.592Z,3.00
2022-12-16T10:45:24.253Z,3.00
2022-12-16T10:48:09.696Z,2.90
2022-12-16T10:50:55.194Z,2.90
2022-12-16T10:53:44.829Z,2.90
2022-12-16T10:56:49.188Z,2.90
2022-12-16T10:59:34.853Z,2.90
2022-12-16T11:02:20.738Z,3.00
2022-12-16T11:05:06.626Z,3.00
2022-12-16T11:07:51.825Z,2.90
2022-12-16T11:10:47.380Z,2.90
2022-12-16T11:13:36.627Z,3.00
2022-12-16T11:16:29.476Z,3.10
2022-12-16T11:19:14.816Z,3.10
2022-12-16T11:22:00.148Z,3.10
2022-12-16T11:24:45.981Z,3.00
2022-12-16T11:27:49.765Z,3.00
2022-12-16T11:30:36.833Z,3.00
2022-12-16T11:33:30.314Z,3.00
2022-12-16T11:36:23.241Z,3.10
2022-12-16T11:39:09.597Z,3.20
2022-12-16T11:41:56.879Z,3.40
2022-12-16T11:44:46.864Z,3.50
2022-12-16T11:47:42.323Z,3.50
2022-12-16T11:50:30.684Z,3.70
2022-12-16T11:53:18.049Z,3.70
2022-12-16T11:56:12.468Z,3.80
2022-12-16T11:59:02.871Z,3.90
2022-12-16T12:02:07.294Z,3.90
2022-12-16T12:04:53.889Z,3.90
2022-12-16T12:07:45.464Z,4.00
2022-12-16T12:10:40.117Z,4.00
2022-12-16T12:13:35.618Z,4.10
2022-12-16T12:16:31.633Z,4.20
2022-12-16T12:19:33.422Z,4.30
2022-12-16T12:22:28.370Z,4.30
2022-12-16T12:25:34.840Z,4.30
2022-12-16T12:28:40.747Z,4.30
2022-12-16T12:31:35.283Z,4.30
2022-12-16T12:34:26.734Z,4.40
2022-12-16T12:37:18.168Z,4.50
2022-12-16T12:40:04.849Z,4.50
2022-12-16T12:42:56.564Z,4.60
2022-12-16T12:45:48.059Z,4.60
2022-12-16T12:48:33.561Z,4.70
2022-12-16T12:51:24.013Z,4.80
2022-12-16T12:54:15.413Z,4.90
2022-12-16T12:57:00.793Z,5.10
2022-12-16T12:59:49.348Z,5.10
2022-12-16T13:02:38.342Z,5.10
2022-12-16T13:05:24.931Z,5.30
2022-12-16T13:08:10.121Z,5.30
2022-12-16T13:10:56.067Z,5.40
2022-12-16T13:13:48.523Z,5.40
2022-12-16T13:17:21.796Z,5.50
2022-12-16T13:20:13.672Z,5.60
2022-12-16T13:22:59.225Z,5.70
2022-12-16T13:25:53.433Z,5.80
2022-12-16T13:28:43.238Z,5.80
2022-12-16T13:31:28.742Z,5.90
2022-12-16T13:34:15.113Z,5.90
2022-12-16T13:37:02.081Z,5.90
2022-12-16T13:39:48.663Z,6.00
2022-12-16T13:42:52.151Z,6.10
2022-12-16T13:45:47.856Z,6.10
2022-12-16T13:48:47.611Z,6.00
2022-12-16T13:51:51.739Z,6.00
2022-12-16T13:54:37.441Z,6.00
2022-12-16T13:57:23.599Z,6.00
2022-12-16T14:00:09.438Z,6.00
2022-12-16T14:02:59.072Z,6.00
2022-12-16T14:05:46.694Z,6.00
2022-12-16T14:08:36.477Z,6.00
2022-12-16T14:11:22.886Z,6.00
2022-12-16T14:14:27.095Z,5.90
2022-12-16T14:17:14.416Z,5.90
2022-12-16T14:20:18.051Z,6.00
2022-12-16T14:23:03.681Z,6.00
2022-12-16T14:25:48.881Z,6.10
2022-12-16T14:28:53.124Z,6.00
2022-12-16T14:31:52.460Z,5.90
2022-12-16T14:34:45.687Z,5.70
2022-12-16T14:37:35.801Z,5.60
2022-12-16T14:40:22.494Z,5.40
2022-12-16T14:43:13.128Z,5.30
2022-12-16T14:46:06.859Z,5.20
2022-12-16T14:48:56.698Z,5.10
2022-12-16T14:51:52.349Z,5.00
2022-12-16T14:54:39.650Z,4.90
2022-12-16T14:57:29.523Z,4.80
2022-12-16T15:00:29.027Z,4.70
2022-12-16T15:03:16.106Z,4.60
2022-12-16T15:06:02.146Z,4.40
2022-12-16T15:08:48.244Z,4.30
2022-12-16T15:11:35.845Z,4.20
2022-12-16T15:14:21.741Z,4.10
2022-12-16T15:17:08.816Z,4.00
2022-12-16T15:20:03.599Z,3.90
2022-12-16T15:22:49.846Z,3.80
2022-12-16T15:25:53.273Z,3.60
2022-12-16T15:28:43.844Z,3.50
2022-12-16T15:31:42.323Z,3.40
2022-12-16T15:34:46.753Z,3.30
2022-12-16T15:37:34.273Z,3.20
2022-12-16T15:40:19.611Z,3.10
2022-12-16T15:43:08.766Z,2.90
2022-12-16T15:46:14.648Z,2.90
2022-12-16T15:49:00.080Z,2.80
2022-12-16T15:51:45.418Z,2.70
2022-12-16T15:54:33.571Z,2.60
2022-12-16T15:57:19.656Z,2.40
2022-12-16T16:00:15.606Z,2.30
2022-12-16T16:03:05.942Z,2.30
2022-12-16T16:05:52.430Z,2.20
2022-12-16T16:08:37.463Z,2.10
2022-12-16T16:11:23.047Z,2.00
2022-12-16T16:14:13.972Z,1.90
2022-12-16T16:16:59.951Z,1.80
2022-12-16T16:19:45.760Z,1.80
2022-12-16T16:22:32.207Z,1.70
2022-12-16T16:25:17.702Z,1.70
2022-12-16T16:28:03.395Z,1.60
2022-12-16T16:30:49.196Z,1.50
2022-12-16T16:33:35.045Z,1.40
2022-12-16T16:36:20.668Z,1.30
2022-12-16T16:39:05.902Z,1.20
2022-12-16T16:41:51.282Z,1.20
2022-12-16T16:44:37.097Z,1.10
2022-12-16T16:47:22.344Z,1.10
2022-12-16T16:50:07.634Z,1.10
2022-12-16T16:52:52.883Z,1.10
2022-12-16T16:55:39.766Z,1.00
2022-12-16T16:58:32.959Z,1.00
2022-12-16T17:01:18.364Z,1.00
2022-12-16T17:04:04.184Z,0.90
2022-12-16T17:06:49.664Z,0.90
2022-12-16T17:09:35.180Z,0.90
2022-12-16T17:12:20.451Z,0.80
2022-12-16T17:15:05.859Z,0.70
2022-12-16T17:17:51.207Z,0.60
2022-12-16T17:20:36.596Z,0.60
2022-12-16T17:23:21.704Z,0.50
2022-12-16T17:26:07.394Z,0.50
2022-12-16T17:28:52.613Z,0.50
2022-12-16T17:31:38.257Z,0.50
2022-12-16T17:34:23.709Z,0.50
2022-12-16T17:37:09.296Z,0.50
2022-12-16T17:39:54.780Z,0.40
2022-12-16T17:42:44.807Z,0.40
2022-12-16T17:45:31.652Z,0.40
2022-12-16T17:48:17.002Z,0.30
2022-12-16T17:51:02.513Z,0.30
2022-12-16T17:53:49.617Z,0.20
2022-12-16T17:56:34.863Z,0.20
2022-12-16T17:59:20.233Z,0.10
2022-12-16T18:02:05.677Z,0.10
2022-12-16T18:04:51.306Z,0.10
2022-12-16T18:07:36.875Z,0.00
2022-12-16T18:10:22.591Z,0.00
2022-12-16T18:13:07.945Z,0.00
2022-12-16T18:15:53.503Z,-0.10
2022-12-16T18:18:44.471Z,-0.10
2022-12-16T18:21:32.325Z,-0.10
2022-12-16T18:24:17.645Z,-0.20
2022-12-16T18:27:03.031Z,-0.20
2022-12-16T18:29:48.188Z,-0.20
2022-12-16T18:32:35.521Z,-0.30
2022-12-16T18:35:21.543Z,-0.30
2022-12-16T18:38:06.807Z,-0.40
2022-12-16T18:40:52.248Z,-0.40
2022-12-16T18:43:37.626Z,-0.40
2022-12-16T18:46:23.339Z,-0.50
2022-12-16T18:49:09.020Z,-0.60
2022-12-16T18:51:54.195Z,-0.60
2022-12-16T18:54:39.581Z,-0.60
2022-12-16T18:57:24.751Z,-0.60
2022-12-16T19:00:10.380Z,-0.70
2022-12-16T19:02:56.060Z,-0.70
2022-12-16T19:05:41.430Z,-0.70
2022-12-16T19:08:26.825Z,-0.80
2022-12-16T19:11:15.683Z,-0.80
2022-12-16T19:14:01.206Z,-0.80
2022-12-16T19:16:46.540Z,-0.90
2022-12-16T19:19:31.812Z,-1.00
2022-12-16T19:22:17.230Z,-1.00
2022-12-16T19:25:02.590Z,-1.00
2022-12-16T19:27:47.993Z,-1.10
2022-12-16T19:30:33.728Z,-1.10
2022-12-16T19:33:19.284Z,-1.10
2022-12-16T19:36:04.776Z,-1.20
2022-12-16T19:38:50.306Z,-1.20
2022-12-16T19:41:36.363Z,-1.20
2022-12-16T19:44:22.928Z,-1.30
2022-12-16T19:47:09.397Z,-1.30
2022-12-16T19:49:56.066Z,-1.30
2022-12-16T19:52:42.093Z,-1.40
2022-12-16T19:55:28.069Z,-1.40
2022-12-16T19:58:13.897Z,-1.50
2022-12-16T20:00:59.387Z,-1.60
2022-12-16T20:03:49.808Z,-1.60
2022-12-16T20:06:35.429Z,-1.60
2022-12-16T20:09:20.825Z,-1.60
2022-12-16T20:12:06.035Z,-1.60
2022-12-16T20:14:51.712Z,-1.60
2022-12-16T20:17:37.104Z,-1.60
2022-12-16T20:20:22.742Z,-1.60
2022-12-16T20:23:08.036Z,-1.70
2022-12-16T20:28:58.780Z,-1.70
2022-12-16T20:31:44.261Z,-1.70
2022-12-16T20:34:29.525Z,-1.80
2022-12-16T20:37:14.751Z,-1.80
2022-12-16T20:40:00.111Z,-1.80
2022-12-16T20:42:45.764Z,-1.80
2022-12-16T20:45:31.140Z,-1.70
2022-12-16T20:48:16.343Z,-1.70
2022-12-16T20:51:01.635Z,-1.70
2022-12-16T20:53:47.362Z,-1.80
2022-12-16T20:56:32.856Z,-1.90
2022-12-16T20:59:18.229Z,-1.90
2022-12-16T21:05:09.248Z,-1.90
2022-12-16T21:07:54.777Z,-2.00
2022-12-16T21:10:42.385Z,-2.00
2022-12-16T21:13:28.971Z,-2.00
2022-12-16T21:16:16.497Z,-2.10
2022-12-16T21:19:01.941Z,-2.20
2022-12-16T21:21:47.755Z,-2.20
2022-12-16T21:24:33.131Z,-2.20
2022-12-16T21:27:18.503Z,-2.20
2022-12-16T21:30:03.861Z,-2.30
2022-12-16T21:32:48.989Z,-2.30
2022-12-16T21:35:34.469Z,-2.30
2022-12-16T21:38:19.764Z,-2.40
2022-12-16T21:41:11.940Z,-2.40
2022-12-16T21:43:57.500Z,-2.50
2022-12-16T21:46:42.994Z,-2.50
2022-12-16T21:49:28.472Z,-2.50
2022-12-16T21:52:13.635Z,-2.50
2022-12-16T21:54:59.130Z,-2.50
2022-12-16T21:57:45.025Z,-2.60
2022-12-16T22:00:30.900Z,-2.60
2022-12-16T22:03:16.480Z,-2.60
2022-12-16T22:06:01.959Z,-2.60
2022-12-16T22:08:47.540Z,-2.70
2022-12-16T22:11:33.117Z,-2.70
2022-12-16T22:14:19.015Z,-2.70
2022-12-16T22:17:07.480Z,-2.70
2022-12-16T22:19:56.080Z,-2.70
2022-12-16T22:22:42.068Z,-2.70
2022-12-16T22:25:27.744Z,-2.70
2022-12-16T22:28:13.053Z,-2.70
2022-12-16T22:30:58.421Z,-2.60
2022-12-16T22:33:43.706Z,-2.60
2022-12-16T22:36:29.286Z,-2.70
2022-12-16T22:39:14.609Z,-2.80
2022-12-16T22:41:59.887Z,-2.80
2022-12-16T22:44:45.214Z,-2.80
2022-12-16T22:47:30.592Z,-2.90
2022-12-16T22:50:16.060Z,-2.90
2022-12-16T22:53:01.473Z,-2.90
2022-12-16T22:55:46.812Z,-3.00
2022-12-16T22:58:32.101Z,-3.00
2022-12-16T23:01:17.978Z,-3.00
2022-12-16T23:04:03.249Z,-3.00
2022-12-16T23:06:48.710Z,-3.10
2022-12-16T23:09:34.101Z,-3.10
2022-12-16T23:12:19.277Z,-3.10
2022-12-16T23:15:04.637Z,-3.10
2022-12-16T23:17:50.165Z,-3.20
2022-12-16T23:20:35.720Z,-3.20
2022-12-16T23:23:21.059Z,-3.20
2022-12-16T23:26:16.392Z,-3.20
2022-12-16T23:29:01.766Z,-3.30
2022-12-16T23:31:47.258Z,-3.30
2022-12-16T23:34:34.371Z,-3.30
2022-12-16T23:37:19.637Z,-3.30
2022-12-16T23:40:04.910Z,-3.30
2022-12-16T23:42:50.182Z,-3.30
2022-12-16T23:45:35.340Z,-3.30
2022-12-16T23:48:24.756Z,-3.30
2022-12-16T23:51:10.368Z,-3.30
2022-12-16T23:53:56.519Z,-3.30
2022-12-16T23:56:42.935Z,-3.40
2022-12-16T23:59:28.858Z,-3.40
